Seattle, WA

6:19 AM PDT on October 01, 2016 (GMT -0700)
North Beacon Hill | | Change Station

Elev 335 ft 47.59 °N, 122.32 °W | Updated 2 minutes ago

Overcast
Overcast
51.1 °F
Feels Like 51.1 °F
N
2.2
Wind Variable Wind from South
Gusts 2.7 mph

Today
High -- | Low -- °F
--% Chance of Precip.
Yesterday
High -- | Low -- °F
Precip. -- in
Pressure 29.94 in
Visibility 10.0 miles
Clouds Mostly Cloudy 4200 ft
Mostly Cloudy 6000 ft
Overcast 7500 ft
Dew Point 49 °F
Humidity 94%
Rainfall 0.05 in
Snow Depth Not available.
7:09 AM 6:47 PM
New Moon, 0% visible
METAR KBFI 011253Z VRB05KT 10SM BKN042 BKN060 OVC075 11/09 A2994 RMK AO2 SLP137 T01110094 $
Pressure 29.94 in
Visibility 10.0 miles
Clouds Mostly Cloudy 4200 ft
Mostly Cloudy 6000 ft
Overcast 7500 ft
Dew Point 49 °F
Humidity 94%
Rainfall 0.05 in
Snow Depth Not available.
7:09 AM 6:47 PM
New Moon, 0% visible
METAR KBFI 011253Z VRB05KT 10SM BKN042 BKN060 OVC075 11/09 A2994 RMK AO2 SLP137 T01110094 $

10-Day Weather Forecast

Almanac

Astronomy

Oct. 01, 2016 Rise Set
Actual Time
Civil Twilight
Nautical Twilight
Astronomical Twilight
Moon
Length of Visible Light
Length of Day
Tomorrow will be .
, % of the Moon is Illuminated

Today's Extremes

State Highs State Lows

Community

WunderPhotos

Upload Photos

1,942,929 photos uploaded!

WunderBlog® & News

Nearby

Air Quality

  Air Quality AQ Index Pollutant
Not available.

Snow Depth

Station Depth Elevation

Earthquake Activity

City Distance Mag. Time & Date
Minimum magnitude displayed is 2.5.

Coastal Water Temperatures

Place Temperature

Stations

Nearby Weather Stations

Station Location Temp. Windchill Dew Point Humidity Wind Precip. Elev Updated Type
                   

Watches & Warnings

There are currently no watches in effect.